Huvudsida
METAR-TAF:

METAR-TAF

Flygplatser :

Karachi, Pakistan

latitud: 24-54N, longitud: 067-08E, höjd: 21 m

Aktuellt väderrapport

Denna rapport gjordes för 26 minuter sedan, klockan 09:00 UTC
Vind 20 kt från väst/sydväst
Temperatur 36°C
Fuktighet 45%
Tryck 1004 hPa
Sikt: 6000 m

METAR: OPKC 200900Z 24020KT 6000 NSC 36/22 Q1004 TEMPO 24015G25KT

Tid: 14:26 (09:26 UTC)

Väderprognos

Denna rapport gjordes för 4 timmar och 26 minuter sedan, klockan 05:00 UTC
Prognos gäller från 20 kl. 06 UTC till 21 kl. 12 UTC
Vind 12 kt från väst i byarna ända upp till 22 kt
Sikt: 6000 m
Blir
från 20 kl. 18 UTC till 20 kl. 20 UTC
Vind 8 kt från väst
Sikt: 5000 m
torrdis
Temporärt
från 21 kl. 01 UTC till 21 kl. 05 UTC
Vind 8 kt från väst
Sikt: 4000 m
torrdis
Från 21 kl. 0600 UTC
Vind 12 kt från väst i byarna ända upp till 22 kt
Sikt: 6000 m

TAF: OPKC 200500Z 2006/2112 26012G22KT 6000 NSC BECMG 2018/2020 28008KT 5000 HZ NSC TEMPO 2101/2105 28008KT 4000 HZ NSC FM210600 26012G22KT 6000 NSC

Aktuella väderrapporter och prognoser från 4000 flygplatser (METAR- och TAF-rapporter).

De tillgängliga stationerna syns som gula och röda prickar på kartan.

För musen över prickarna för att se namnen på stationerna.

Klicka sedan för att få väderrapporter och prognoser.

För att ändra kartan: Klicka på de gröna knapparna med ett svart kors på för att zooma in; den gröna knappen med ett streck på för att zooma ut; eller på de gröna pilarna för angränsande kartor.


METAR-TAF: